Time;durP1;ratioP1;P1;durP2;ratioP2;P2;SDS_P1;SDS_P2;PMS_P1;PMS_P2;Temp;Humidity;BMP_temperature;BMP_pressure;BME280_temperature;BME280_humidity;BME280_pressure;Samples;Min_cycle;Max_cycle;Signal;HPM_P1;HPM_P2
2023/07/31 00:02:50;;;;;;;;;;;;;;;;;;6245830;28;19905;-86
2023/07/31 00:05:50;;;;;;;;;;;;;;;;;;6246465;28;20406;-87
2023/07/31 00:08:51;;;;;;;;;;;;;;;;;;6236357;28;19905;-86
2023/07/31 00:11:51;;;;;;;;;;;;;;;;;;6247167;28;20339;-87
2023/07/31 00:14:51;;;;;;;;;;;;;;;;;;6247487;28;19905;-87
2023/07/31 00:17:51;;;;;;;;;;;;;;;;;;6243540;28;20426;-88
2023/07/31 00:20:51;;;;;;;;;;;;;;;;;;6244244;28;19905;-87
2023/07/31 00:23:51;;;;;;;;;;;;;;;;;;6247573;28;20454;-87
2023/07/31 00:26:52;;;;;;;;;;;;;;;;;;6251218;28;19905;-87
2023/07/31 00:29:52;;;;;;;;;;;;;;;;;;6249163;28;19928;-87
2023/07/31 00:32:52;;;;;;;;;;;;;;;;;;6247893;28;20378;-88
2023/07/31 00:35:52;;;;;;;;;;;;;;;;;;6249276;28;19905;-87
2023/07/31 00:38:52;;;;;;;;;;;;;;;;;;6246925;28;19912;-89
2023/07/31 00:41:52;;;;;;;;;;;;;;;;;;6251981;28;19959;-88
2023/07/31 00:44:52;;;;;;;;;;;;;;;;;;6242780;28;19905;-87
2023/07/31 00:47:52;;;;;;;;;;;;;;;;;;6251816;28;19987;-86
2023/07/31 00:50:52;;;;;;;;;;;;;;;;;;6254106;28;19923;-85
2023/07/31 00:53:55;;;;;;;;;;;;;;;;;;6250521;28;20026;-82
2023/07/31 00:56:55;;;;;;;;;;;;;;;;;;6251724;28;19916;-85
2023/07/31 00:59:55;;;;;;;;;;;;;;;;;;6245767;28;19909;-86
2023/07/31 01:02:56;;;;;;;;;;;;;;;;;;6243004;28;19967;-85
2023/07/31 01:05:56;;;;;;;;;;;;;;;;;;6242742;28;20383;-88
2023/07/31 01:08:56;;;;;;;;;;;;;;;;;;6242156;28;19915;-87
2023/07/31 01:11:57;;;;;;;;;;;;;;;;;;6240916;28;19923;-86
2023/07/31 01:14:57;;;;;;;;;;;;;;;;;;6241255;28;20249;-88
2023/07/31 01:17:57;;;;;;;;;;;;;;;;;;6243497;28;19916;-88
2023/07/31 01:20:57;;;;;;;;;;;;;;;;;;6241239;28;19979;-88
2023/07/31 01:23:58;;;;;;;;;;;;;;;;;;6240206;28;20379;-87
2023/07/31 01:26:58;;;;;;;;;;;;;;;;;;6239202;28;19905;-87
2023/07/31 01:29:58;;;;;;;;;;;;;;;;;;6241174;28;19909;-88
2023/07/31 01:32:58;;;;;;;;;;;;;;;;;;6244628;28;19909;-89
2023/07/31 01:35:58;;;;;;;;;;;;;;;;;;6241705;28;19912;-89
2023/07/31 01:38:59;;;;;;;;;;;;;;;;;;6244864;28;19912;-88
2023/07/31 01:41:59;;;;;;;;;;;;;;;;;;6242157;28;20436;-90
2023/07/31 01:44:59;;;;;;;;;;;;;;;;;;6244552;28;19948;-88
2023/07/31 01:47:59;;;;;;;;;;;;;;;;;;6244656;28;19970;-86
2023/07/31 01:50:59;;;;;;;;;;;;;;;;;;6246639;28;19913;-86
2023/07/31 01:53:59;;;;;;;;;;;;;;;;;;6248787;28;19997;-84
2023/07/31 01:56:59;;;;;;;;;;;;;;;;;;6246167;28;19917;-86
2023/07/31 01:59:59;;;;;;;;;;;;;;;;;;6242490;28;19909;-86
2023/07/31 02:02:59;;;;;;;;;;;;;;;;;;6245243;28;20384;-87
2023/07/31 02:05:59;;;;;;;;;;;;;;;;;;6240213;28;19953;-86
2023/07/31 02:09:00;;;;;;;;;;;;;;;;;;6244251;28;19935;-86
2023/07/31 02:12:00;;;;;;;;;;;;;;;;;;6229404;28;20357;-87
2023/07/31 02:15:00;;;;;;;;;;;;;;;;;;6245533;28;19963;-88
2023/07/31 02:18:00;;;;;;;;;;;;;;;;;;6241798;28;19913;-88
2023/07/31 02:21:00;;;;;;;;;;;;;;;;;;6241499;28;20527;-86
2023/07/31 02:24:00;;;;;;;;;;;;;;;;;;6246228;28;19909;-89
2023/07/31 02:27:00;;;;;;;;;;;;;;;;;;6224022;28;20054;-87
2023/07/31 02:30:00;;;;;;;;;;;;;;;;;;6244591;28;20447;-86
2023/07/31 02:33:01;;;;;;;;;;;;;;;;;;6231355;28;20355;-86
2023/07/31 02:36:01;;;;;;;;;;;;;;;;;;6248853;28;19909;-85
2023/07/31 02:39:01;;;;;;;;;;;;;;;;;;6249722;28;19947;-85
2023/07/31 02:42:01;;;;;;;;;;;;;;;;;;6248286;28;19909;-85
2023/07/31 02:45:01;;;;;;;;;;;;;;;;;;6248799;28;20823;-86
2023/07/31 02:48:01;;;;;;;;;;;;;;;;;;6254995;28;19905;-86
2023/07/31 02:51:01;;;;;;;;;;;;;;;;;;6246405;28;19909;-83
2023/07/31 02:54:01;;;;;;;;;;;;;;;;;;6253787;28;19939;-87
2023/07/31 02:57:02;;;;;;;;;;;;;;;;;;6255048;28;19905;-86
2023/07/31 03:00:05;;;;;;;;;;;;;;;;;;6256782;28;19909;-86
2023/07/31 03:03:05;;;;;;;;;;;;;;;;;;6254105;28;20283;-82
2023/07/31 03:06:05;;;;;;;;;;;;;;;;;;6271251;28;20420;-82
2023/07/31 03:09:05;;;;;;;;;;;;;;;;;;6252225;28;19916;-85
2023/07/31 03:12:06;;;;;;;;;;;;;;;;;;6253647;28;19952;-84
2023/07/31 03:15:06;;;;;;;;;;;;;;;;;;6256649;28;19909;-85
2023/07/31 03:18:06;;;;;;;;;;;;;;;;;;6261743;28;19963;-81
2023/07/31 03:21:06;;;;;;;;;;;;;;;;;;6260294;28;19954;-82
2023/07/31 03:24:06;;;;;;;;;;;;;;;;;;6274328;28;19913;-82
2023/07/31 03:27:06;;;;;;;;;;;;;;;;;;6264879;28;19913;-81
2023/07/31 03:30:06;;;;;;;;;;;;;;;;;;6268518;28;19909;-80
2023/07/31 03:33:06;;;;;;;;;;;;;;;;;;6255978;28;19916;-86
2023/07/31 03:36:07;;;;;;;;;;;;;;;;;;6246561;28;19916;-84
2023/07/31 03:39:07;;;;;;;;;;;;;;;;;;6251036;28;19920;-82
2023/07/31 03:42:08;;;;;;;;;;;;;;;;;;6254944;28;19905;-80
2023/07/31 03:45:08;;;;;;;;;;;;;;;;;;6265155;28;19935;-84
2023/07/31 03:48:08;;;;;;;;;;;;;;;;;;6264288;28;19920;-85
2023/07/31 03:51:08;;;;;;;;;;;;;;;;;;6263609;28;19909;-84
2023/07/31 03:54:08;;;;;;;;;;;;;;;;;;6272289;28;19944;-84
2023/07/31 03:57:08;;;;;;;;;;;;;;;;;;6259512;28;19977;-85
2023/07/31 04:00:09;;;;;;;;;;;;;;;;;;6252305;28;20293;-85
2023/07/31 04:03:09;;;;;;;;;;;;;;;;;;6254559;28;19905;-84
2023/07/31 04:06:10;;;;;;;;;;;;;;;;;;6233234;28;19913;-84
2023/07/31 04:09:11;;;;;;;;;;;;;;;;;;6238781;28;20359;-86
2023/07/31 04:12:13;;;;;;;;;;;;;;;;;;6227108;28;20346;-85
2023/07/31 04:15:13;;;;;;;;;;;;;;;;;;6224443;28;20368;-75
2023/07/31 04:18:13;;;;;;;;;;;;;;;;;;6226290;28;19912;-75
2023/07/31 04:21:13;;;;;;;;;;;;;;;;;;6221548;28;19910;-75
2023/07/31 04:24:13;;;;;;;;;;;;;;;;;;6229490;28;19909;-75
2023/07/31 04:27:13;;;;;;;;;;;;;;;;;;6223556;28;19964;-75
2023/07/31 04:30:13;;;;;;;;;;;;;;;;;;6229048;28;19921;-75
2023/07/31 04:33:13;;;;;;;;;;;;;;;;;;6216359;28;20394;-75
2023/07/31 04:36:13;;;;;;;;;;;;;;;;;;6217948;28;19912;-75
2023/07/31 04:39:14;;;;;;;;;;;;;;;;;;6218968;28;20036;-75
2023/07/31 04:42:14;;;;;;;;;;;;;;;;;;6215538;28;19971;-73
2023/07/31 04:45:14;;;;;;;;;;;;;;;;;;6227536;28;20067;-74
2023/07/31 04:48:14;;;;;;;;;;;;;;;;;;6215332;28;20002;-74
2023/07/31 04:51:14;;;;;;;;;;;;;;;;;;6221033;28;20280;-74
2023/07/31 04:54:17;;;;;;;;;;;;;;;;;;6220002;28;19909;-74
2023/07/31 04:57:17;;;;;;;;;;;;;;;;;;6222400;28;19920;-83
2023/07/31 05:00:17;;;;;;;;;;;;;;;;;;6214678;28;19910;-82
2023/07/31 05:03:18;;;;;;;;;;;;;;;;;;6223290;28;19968;-83
2023/07/31 05:06:18;;;;;;;;;;;;;;;;;;6248740;28;19917;-83
2023/07/31 05:09:18;;;;;;;;;;;;;;;;;;6252040;28;19912;-83
2023/07/31 05:12:18;;;;;;;;;;;;;;;;;;6246686;28;19921;-85
2023/07/31 05:15:18;;;;;;;;;;;;;;;;;;6258625;28;19909;-84
2023/07/31 05:18:18;;;;;;;;;;;;;;;;;;6242416;28;19913;-83
2023/07/31 05:21:18;;;;;;;;;;;;;;;;;;6242644;28;19913;-84
2023/07/31 05:24:18;;;;;;;;;;;;;;;;;;6239873;28;19904;-85
2023/07/31 05:27:19;;;;;;;;;;;;;;;;;;6252437;28;19967;-84
2023/07/31 05:30:21;;;;;;;;;;;;;;;;;;6243488;28;20364;-83
2023/07/31 05:33:21;;;;;;;;;;;;;;;;;;6247351;28;19913;-85
2023/07/31 05:36:21;;;;;;;;;;;;;;;;;;6240237;28;19916;-84
2023/07/31 05:39:21;;;;;;;;;;;;;;;;;;6225388;28;19956;-84
2023/07/31 05:42:21;;;;;;;;;;;;;;;;;;6242037;28;19917;-82
2023/07/31 05:45:21;;;;;;;;;;;;;;;;;;6244500;28;19917;-80
2023/07/31 05:48:21;;;;;;;;;;;;;;;;;;6246016;28;19916;-82
2023/07/31 05:51:22;;;;;;;;;;;;;;;;;;6260770;28;20013;-84
2023/07/31 05:54:22;;;;;;;;;;;;;;;;;;6250617;28;19940;-82
2023/07/31 05:57:22;;;;;;;;;;;;;;;;;;6257850;28;19909;-79
2023/07/31 06:00:22;;;;;;;;;;;;;;;;;;6257806;28;19909;-84
2023/07/31 06:03:22;;;;;;;;;;;;;;;;;;6253403;28;19913;-83
2023/07/31 06:06:22;;;;;;;;;;;;;;;;;;6241349;28;19916;-86
2023/07/31 06:09:22;;;;;;;;;;;;;;;;;;6245601;28;19913;-85
2023/07/31 06:12:23;;;;;;;;;;;;;;;;;;6240040;28;19979;-85
2023/07/31 06:15:23;;;;;;;;;;;;;;;;;;6245955;28;20466;-85
2023/07/31 06:18:23;;;;;;;;;;;;;;;;;;6241795;28;19909;-85
2023/07/31 06:21:23;;;;;;;;;;;;;;;;;;6244787;28;20599;-85
2023/07/31 06:24:23;;;;;;;;;;;;;;;;;;6230374;28;20318;-85
2023/07/31 06:27:23;;;;;;;;;;;;;;;;;;6232487;28;19917;-88
2023/07/31 06:30:23;;;;;;;;;;;;;;;;;;6241118;28;20282;-88
2023/07/31 06:33:23;;;;;;;;;;;;;;;;;;6241431;28;19921;-88
2023/07/31 06:36:24;;;;;;;;;;;;;;;;;;6241501;28;19958;-87
2023/07/31 06:39:24;;;;;;;;;;;;;;;;;;6240174;28;19916;-90
2023/07/31 06:42:25;;;;;;;;;;;;;;;;;;6242695;28;19920;-88
2023/07/31 06:45:26;;;;;;;;;;;;;;;;;;6244747;28;20023;-90
2023/07/31 06:48:26;;;;;;;;;;;;;;;;;;6239886;28;19920;-88
2023/07/31 06:51:26;;;;;;;;;;;;;;;;;;6236807;28;20012;-90
2023/07/31 06:54:26;;;;;;;;;;;;;;;;;;6234446;28;19963;-89
2023/07/31 06:57:26;;;;;;;;;;;;;;;;;;6240628;28;19917;-88
2023/07/31 07:00:26;;;;;;;;;;;;;;;;;;6241492;28;19916;-86
2023/07/31 07:03:26;;;;;;;;;;;;;;;;;;6234734;28;19956;-88
2023/07/31 07:06:26;;;;;;;;;;;;;;;;;;6240779;28;19917;-89
2023/07/31 07:09:26;;;;;;;;;;;;;;;;;;6233973;28;19909;-87
2023/07/31 07:12:26;;;;;;;;;;;;;;;;;;6241049;28;20008;-87
2023/07/31 07:15:27;;;;;;;;;;;;;;;;;;6233878;28;19909;-87
2023/07/31 07:18:27;;;;;;;;;;;;;;;;;;6240671;28;19927;-88
2023/07/31 07:21:27;;;;;;;;;;;;;;;;;;6220910;28;20239;-87
2023/07/31 07:24:27;;;;;;;;;;;;;;;;;;6241129;28;19992;-89
2023/07/31 07:27:27;;;;;;;;;;;;;;;;;;6237218;28;19913;-88
2023/07/31 07:30:27;;;;;;;;;;;;;;;;;;6237850;28;19920;-86
2023/07/31 07:33:27;;;;;;;;;;;;;;;;;;6244066;28;20683;-86
2023/07/31 07:36:27;;;;;;;;;;;;;;;;;;6243401;28;19913;-85
2023/07/31 07:39:28;;;;;;;;;;;;;;;;;;6225579;28;19909;-86
2023/07/31 07:42:28;;;;;;;;;;;;;;;;;;6242066;28;19917;-86
2023/07/31 07:45:28;;;;;;;;;;;;;;;;;;6243532;28;19913;-86
2023/07/31 07:48:28;;;;;;;;;;;;;;;;;;6243982;28;20382;-86
2023/07/31 07:51:30;;;;;;;;;;;;;;;;;;6245585;28;19966;-84
2023/07/31 07:54:30;;;;;;;;;;;;;;;;;;6243450;28;20699;-87
2023/07/31 07:57:30;;;;;;;;;;;;;;;;;;6250166;28;19971;-85
2023/07/31 08:00:30;;;;;;;;;;;;;;;;;;6243879;28;19945;-86
2023/07/31 08:03:30;;;;;;;;;;;;;;;;;;6251818;28;20262;-88
2023/07/31 08:06:31;;;;;;;;;;;;;;;;;;6250639;28;20373;-85
2023/07/31 08:09:31;;;;;;;;;;;;;;;;;;6252477;28;19915;-85
2023/07/31 08:12:31;;;;;;;;;;;;;;;;;;6236399;28;19932;-86
2023/07/31 08:15:31;;;;;;;;;;;;;;;;;;6245688;28;19959;-87
2023/07/31 08:18:31;;;;;;;;;;;;;;;;;;6247984;28;19920;-86
2023/07/31 08:21:31;;;;;;;;;;;;;;;;;;6242697;28;19915;-87
2023/07/31 08:24:32;;;;;;;;;;;;;;;;;;6248013;28;19987;-86
2023/07/31 08:27:32;;;;;;;;;;;;;;;;;;6250958;28;19909;-88
2023/07/31 08:30:33;;;;;;;;;;;;;;;;;;6243551;28;19909;-86
2023/07/31 08:33:33;;;;;;;;;;;;;;;;;;6244278;28;19920;-84
2023/07/31 08:36:33;;;;;;;;;;;;;;;;;;6237886;28;19913;-83
2023/07/31 08:39:33;;;;;;;;;;;;;;;;;;6238897;28;19916;-85
2023/07/31 08:42:33;;;;;;;;;;;;;;;;;;6236681;28;20392;-83
2023/07/31 08:45:33;;;;;;;;;;;;;;;;;;6244685;28;19915;-86
2023/07/31 08:48:34;;;;;;;;;;;;;;;;;;6236381;28;20256;-85
2023/07/31 08:51:34;;;;;;;;;;;;;;;;;;6244927;28;19920;-80
2023/07/31 08:54:34;;;;;;;;;;;;;;;;;;6239657;28;19913;-86
2023/07/31 08:57:34;;;;;;;;;;;;;;;;;;6238386;28;19944;-79
2023/07/31 09:00:34;;;;;;;;;;;;;;;;;;6234653;28;20004;-83
2023/07/31 09:03:37;;;;;;;;;;;;;;;;;;6243284;28;19913;-86
2023/07/31 09:06:37;;;;;;;;;;;;;;;;;;6243427;28;19909;-87
2023/07/31 09:09:37;;;;;;;;;;;;;;;;;;6240597;28;20039;-87
2023/07/31 09:12:38;;;;;;;;;;;;;;;;;;6240019;28;19972;-85
2023/07/31 09:15:38;;;;;;;;;;;;;;;;;;6236982;28;19971;-83
2023/07/31 09:18:38;;;;;;;;;;;;;;;;;;6231153;28;20189;-84
2023/07/31 09:21:38;;;;;;;;;;;;;;;;;;6242582;28;20450;-84
2023/07/31 09:24:38;;;;;;;;;;;;;;;;;;6234237;28;19920;-83
2023/07/31 09:27:38;;;;;;;;;;;;;;;;;;6239852;28;19917;-84
2023/07/31 09:30:38;;;;;;;;;;;;;;;;;;6236966;28;19913;-85
2023/07/31 09:33:38;;;;;;;;;;;;;;;;;;6238087;28;19956;-82
2023/07/31 09:36:39;;;;;;;;;;;;;;;;;;6241563;28;20038;-82
2023/07/31 09:39:39;;;;;;;;;;;;;;;;;;6238346;28;19916;-82
2023/07/31 09:42:39;;;;;;;;;;;;;;;;;;6244188;28;19909;-82
2023/07/31 09:45:39;;;;;;;;;;;;;;;;;;6239751;28;19919;-84
2023/07/31 09:48:39;;;;;;;;;;;;;;;;;;6243449;28;20355;-85
2023/07/31 09:51:39;;;;;;;;;;;;;;;;;;6243481;28;19967;-84
2023/07/31 09:54:40;;;;;;;;;;;;;;;;;;6236619;28;19958;-85
2023/07/31 09:57:42;;;;;;;;;;;;;;;;;;6243772;28;19951;-88
2023/07/31 10:00:42;;;;;;;;;;;;;;;;;;6243817;28;19912;-86
2023/07/31 10:03:42;;;;;;;;;;;;;;;;;;6237586;28;19912;-87
2023/07/31 10:06:43;;;;;;;;;;;;;;;;;;6217130;28;19921;-86
2023/07/31 10:09:43;;;;;;;;;;;;;;;;;;6212337;28;19912;-88
2023/07/31 10:12:43;;;;;;;;;;;;;;;;;;6223803;28;20487;-87
2023/07/31 10:15:43;;;;;;;;;;;;;;;;;;6218565;28;19913;-88
2023/07/31 10:18:43;;;;;;;;;;;;;;;;;;6218273;28;19935;-88
2023/07/31 10:21:43;;;;;;;;;;;;;;;;;;6217401;28;19906;-88
2023/07/31 10:24:43;;;;;;;;;;;;;;;;;;6225616;28;20451;-89
2023/07/31 10:27:43;;;;;;;;;;;;;;;;;;6225800;28;19910;-88
2023/07/31 10:30:44;;;;;;;;;;;;;;;;;;6225614;28;19909;-86
2023/07/31 10:33:44;;;;;;;;;;;;;;;;;;6226782;28;19918;-84
2023/07/31 10:36:44;;;;;;;;;;;;;;;;;;6218129;28;19925;-86
2023/07/31 10:39:45;;;;;;;;;;;;;;;;;;6224016;28;19917;-86
2023/07/31 10:42:45;;;;;;;;;;;;;;;;;;6207070;28;20004;-84
2023/07/31 10:45:45;;;;;;;;;;;;;;;;;;6219501;28;19997;-86
2023/07/31 10:48:45;;;;;;;;;;;;;;;;;;6217700;28;19918;-90
2023/07/31 10:51:46;;;;;;;;;;;;;;;;;;6228849;28;20008;-86
2023/07/31 10:54:46;;;;;;;;;;;;;;;;;;6211313;28;19959;-88
2023/07/31 10:57:46;;;;;;;;;;;;;;;;;;6213626;28;20677;-87
2023/07/31 11:00:46;;;;;;;;;;;;;;;;;;6212543;28;19960;-83
2023/07/31 11:03:46;;;;;;;;;;;;;;;;;;6222976;28;19916;-88
2023/07/31 11:06:46;;;;;;;;;;;;;;;;;;6247257;28;19913;-88
2023/07/31 11:09:46;;;;;;;;;;;;;;;;;;6245721;28;19955;-88
2023/07/31 11:12:47;;;;;;;;;;;;;;;;;;6248682;28;20612;-88
2023/07/31 11:15:47;;;;;;;;;;;;;;;;;;6249675;28;19960;-90
2023/07/31 11:18:48;;;;;;;;;;;;;;;;;;6229401;28;19909;-88
2023/07/31 11:21:48;;;;;;;;;;;;;;;;;;6246995;28;19912;-88
2023/07/31 11:24:48;;;;;;;;;;;;;;;;;;6237566;28;19909;-86
2023/07/31 11:27:53;;;;;;;;;;;;;;;;;;6251839;28;19909;-86
2023/07/31 11:30:53;;;;;;;;;;;;;;;;;;6246920;28;19908;-86
2023/07/31 11:33:54;;;;;;;;;;;;;;;;;;6248039;28;20390;-88
2023/07/31 11:36:54;;;;;;;;;;;;;;;;;;6248661;28;19905;-88
2023/07/31 11:39:54;;;;;;;;;;;;;;;;;;6250129;28;20403;-84
2023/07/31 11:42:55;;;;;;;;;;;;;;;;;;6264626;28;19913;-87
2023/07/31 11:45:55;;;;;;;;;;;;;;;;;;6266318;28;19916;-86
2023/07/31 11:48:55;;;;;;;;;;;;;;;;;;6249521;28;19912;-86
2023/07/31 11:51:55;;;;;;;;;;;;;;;;;;6243856;28;19917;-85
2023/07/31 11:54:55;;;;;;;;;;;;;;;;;;6231209;28;19920;-86
2023/07/31 11:57:55;;;;;;;;;;;;;;;;;;6241040;28;19921;-84
2023/07/31 12:00:55;;;;;;;;;;;;;;;;;;6253674;28;19999;-87
2023/07/31 12:03:55;;;;;;;;;;;;;;;;;;6206964;28;1092687;-86
2023/07/31 12:06:56;;;;;;;;;;;;;;;;;;6245049;28;19967;-83
2023/07/31 12:09:56;;;;;;;;;;;;;;;;;;6241314;28;19909;-87
2023/07/31 12:12:56;;;;;;;;;;;;;;;;;;6244107;28;20007;-89
2023/07/31 12:16:00;;;;;;;;;;;;;;;;;;6246980;28;19916;-87
2023/07/31 12:19:00;;;;;;;;;;;;;;;;;;6242394;28;19920;-83
2023/07/31 12:22:00;;;;;;;;;;;;;;;;;;6245873;28;20024;-84
2023/07/31 12:25:00;;;;;;;;;;;;;;;;;;6243701;28;19909;-84
2023/07/31 12:28:00;;;;;;;;;;;;;;;;;;6241939;28;19909;-85
2023/07/31 12:31:00;;;;;;;;;;;;;;;;;;6239903;28;19963;-84
2023/07/31 12:34:02;;;;;;;;;;;;;;;;;;6246293;28;19920;-86
2023/07/31 12:37:02;;;;;;;;;;;;;;;;;;6244457;28;19921;-88
2023/07/31 12:40:04;;;;;;;;;;;;;;;;;;6248682;28;19940;-88
2023/07/31 12:43:04;;;;;;;;;;;;;;;;;;6257911;28;19909;-86
2023/07/31 12:46:04;;;;;;;;;;;;;;;;;;6257075;28;19940;-87
2023/07/31 12:49:04;;;;;;;;;;;;;;;;;;6258659;28;19916;-88
2023/07/31 12:52:05;;;;;;;;;;;;;;;;;;6251340;28;19948;-87
2023/07/31 12:55:05;;;;;;;;;;;;;;;;;;6250577;28;19905;-87
2023/07/31 12:58:05;;;;;;;;;;;;;;;;;;6244673;28;19956;-86
2023/07/31 13:01:06;;;;;;;;;;;;;;;;;;6245218;28;20059;-86
2023/07/31 13:04:08;;;;;;;;;;;;;;;;;;6253677;28;19935;-80
2023/07/31 13:07:09;;;;;;;;;;;;;;;;;;6261450;28;19931;-85
2023/07/31 13:10:09;;;;;;;;;;;;;;;;;;6258489;28;19909;-88
2023/07/31 13:13:09;;;;;;;;;;;;;;;;;;6251159;28;19967;-90
2023/07/31 13:16:09;;;;;;;;;;;;;;;;;;6241352;28;19952;-90
2023/07/31 13:19:09;;;;;;;;;;;;;;;;;;6245789;28;19905;-86
2023/07/31 13:22:10;;;;;;;;;;;;;;;;;;6246240;28;19955;-91
2023/07/31 13:25:10;;;;;;;;;;;;;;;;;;6248639;28;19963;-88
2023/07/31 13:28:12;;;;;;;;;;;;;;;;;;6244751;28;19969;-85
2023/07/31 13:31:12;;;;;;;;;;;;;;;;;;6241452;28;19913;-88
2023/07/31 13:34:12;;;;;;;;;;;;;;;;;;6254521;28;19909;-88
2023/07/31 13:37:13;;;;;;;;;;;;;;;;;;6247727;28;19915;-88
2023/07/31 13:40:13;;;;;;;;;;;;;;;;;;6246313;28;19905;-89
2023/07/31 13:43:13;;;;;;;;;;;;;;;;;;6244045;28;19909;-90
2023/07/31 13:46:13;;;;;;;;;;;;;;;;;;6244907;28;20303;-90
2023/07/31 13:49:13;;;;;;;;;;;;;;;;;;6241216;28;19925;-89
2023/07/31 13:52:13;;;;;;;;;;;;;;;;;;6238843;28;19963;-90
2023/07/31 13:55:13;;;;;;;;;;;;;;;;;;6246916;28;19905;-91
2023/07/31 13:58:13;;;;;;;;;;;;;;;;;;6247460;28;19905;-89
2023/07/31 14:01:13;;;;;;;;;;;;;;;;;;6235360;28;19936;-87
2023/07/31 14:04:13;;;;;;;;;;;;;;;;;;6245095;28;19928;-86
2023/07/31 14:07:13;;;;;;;;;;;;;;;;;;6235935;28;19909;-90
2023/07/31 14:10:14;;;;;;;;;;;;;;;;;;6242271;28;19913;-91
2023/07/31 14:13:14;;;;;;;;;;;;;;;;;;6242536;28;19913;-89
2023/07/31 14:16:14;;;;;;;;;;;;;;;;;;6237891;28;19909;-89
2023/07/31 14:19:14;;;;;;;;;;;;;;;;;;6242223;28;19909;-91
2023/07/31 14:22:14;;;;;;;;;;;;;;;;;;6243873;28;19905;-88
2023/07/31 14:25:14;;;;;;;;;;;;;;;;;;6239269;28;19973;-85
2023/07/31 14:28:14;;;;;;;;;;;;;;;;;;6250891;28;19905;-90
2023/07/31 14:31:14;;;;;;;;;;;;;;;;;;6234783;28;19905;-89
2023/07/31 14:34:15;;;;;;;;;;;;;;;;;;6249660;28;20000;-89
2023/07/31 14:37:15;;;;;;;;;;;;;;;;;;6247158;28;19909;-87
2023/07/31 14:40:15;;;;;;;;;;;;;;;;;;6256512;28;19947;-86
2023/07/31 14:43:16;;;;;;;;;;;;;;;;;;6264470;28;19916;-85
2023/07/31 14:46:16;;;;;;;;;;;;;;;;;;6257526;28;19939;-86
2023/07/31 14:49:16;;;;;;;;;;;;;;;;;;6260734;28;20377;-86
2023/07/31 14:52:16;;;;;;;;;;;;;;;;;;6269855;28;19907;-88
2023/07/31 14:55:16;;;;;;;;;;;;;;;;;;6250118;28;20466;-88
2023/07/31 14:58:17;;;;;;;;;;;;;;;;;;6264645;28;19909;-85
2023/07/31 15:01:17;;;;;;;;;;;;;;;;;;6255148;28;19909;-85
2023/07/31 15:04:18;;;;;;;;;;;;;;;;;;6266300;28;19971;-75
2023/07/31 15:07:18;;;;;;;;;;;;;;;;;;6255297;28;19909;-89
2023/07/31 15:10:18;;;;;;;;;;;;;;;;;;6243528;28;19908;-81
2023/07/31 15:13:18;;;;;;;;;;;;;;;;;;6264135;28;19916;-88
2023/07/31 15:16:19;;;;;;;;;;;;;;;;;;6257958;28;19909;-83
2023/07/31 15:19:20;;;;;;;;;;;;;;;;;;6254172;28;19909;-89
2023/07/31 15:22:20;;;;;;;;;;;;;;;;;;6253939;28;19912;-88
2023/07/31 15:25:20;;;;;;;;;;;;;;;;;;6256292;28;20007;-90
2023/07/31 15:28:20;;;;;;;;;;;;;;;;;;6262948;28;19973;-88
2023/07/31 15:31:22;;;;;;;;;;;;;;;;;;6253875;28;20694;-88
2023/07/31 15:34:22;;;;;;;;;;;;;;;;;;6252726;28;20323;-86
2023/07/31 15:37:22;;;;;;;;;;;;;;;;;;6250990;28;19913;-87
2023/07/31 15:40:22;;;;;;;;;;;;;;;;;;6247364;28;19909;-90
2023/07/31 15:43:22;;;;;;;;;;;;;;;;;;6263857;28;19916;-88
2023/07/31 15:46:22;;;;;;;;;;;;;;;;;;6244547;28;19928;-88
2023/07/31 15:49:23;;;;;;;;;;;;;;;;;;6263097;28;19995;-89
2023/07/31 15:52:23;;;;;;;;;;;;;;;;;;6256955;28;19913;-89
2023/07/31 15:55:24;;;;;;;;;;;;;;;;;;6252256;28;19905;-87
2023/07/31 15:58:24;;;;;;;;;;;;;;;;;;6252338;28;19913;-88
2023/07/31 16:01:25;;;;;;;;;;;;;;;;;;6233787;28;19944;-89
2023/07/31 16:04:25;;;;;;;;;;;;;;;;;;6274618;28;19931;-89
2023/07/31 16:07:25;;;;;;;;;;;;;;;;;;6258660;28;19913;-88
2023/07/31 16:10:25;;;;;;;;;;;;;;;;;;6250214;28;19963;-89
2023/07/31 16:13:25;;;;;;;;;;;;;;;;;;6242782;28;20284;-90
2023/07/31 16:16:27;;;;;;;;;;;;;;;;;;6251076;28;19924;-74
2023/07/31 16:19:27;;;;;;;;;;;;;;;;;;6241368;28;20375;-75
2023/07/31 16:22:27;;;;;;;;;;;;;;;;;;6238740;28;20027;-74
2023/07/31 16:25:27;;;;;;;;;;;;;;;;;;6257113;28;19915;-86
2023/07/31 16:28:27;;;;;;;;;;;;;;;;;;6270938;28;19935;-87
2023/07/31 16:31:27;;;;;;;;;;;;;;;;;;6260996;28;19919;-84
2023/07/31 16:34:27;;;;;;;;;;;;;;;;;;6258641;28;19905;-88
2023/07/31 16:37:28;;;;;;;;;;;;;;;;;;6265174;28;20017;-87
2023/07/31 16:40:28;;;;;;;;;;;;;;;;;;6261462;28;19909;-88
2023/07/31 16:43:28;;;;;;;;;;;;;;;;;;6241954;28;19931;-89
2023/07/31 16:46:30;;;;;;;;;;;;;;;;;;6255882;28;19909;-89
2023/07/31 16:49:30;;;;;;;;;;;;;;;;;;6272815;28;20247;-91
2023/07/31 16:52:30;;;;;;;;;;;;;;;;;;6268104;28;19916;-90
2023/07/31 16:55:33;;;;;;;;;;;;;;;;;;6240679;28;19962;-75
2023/07/31 16:58:33;;;;;;;;;;;;;;;;;;6254337;28;19909;-75
2023/07/31 17:01:33;;;;;;;;;;;;;;;;;;6232210;28;19955;-75
2023/07/31 17:04:33;;;;;;;;;;;;;;;;;;6233274;28;20238;-75
2023/07/31 17:07:34;;;;;;;;;;;;;;;;;;6205007;28;20005;-76
2023/07/31 17:10:34;;;;;;;;;;;;;;;;;;6218890;28;19906;-75
2023/07/31 17:13:34;;;;;;;;;;;;;;;;;;6208007;28;20557;-75
2023/07/31 17:16:34;;;;;;;;;;;;;;;;;;6218481;28;19918;-75
2023/07/31 17:19:34;;;;;;;;;;;;;;;;;;6219425;28;20428;-75
2023/07/31 17:22:34;;;;;;;;;;;;;;;;;;6219110;28;19913;-75
2023/07/31 17:25:34;;;;;;;;;;;;;;;;;;6217541;28;19920;-75
2023/07/31 17:28:34;;;;;;;;;;;;;;;;;;6218040;28;19967;-75
2023/07/31 17:31:35;;;;;;;;;;;;;;;;;;6220071;28;19906;-73
2023/07/31 17:34:36;;;;;;;;;;;;;;;;;;6212456;28;19913;-75
2023/07/31 17:37:36;;;;;;;;;;;;;;;;;;6231120;28;20564;-75
2023/07/31 17:40:36;;;;;;;;;;;;;;;;;;6215681;28;20056;-76
2023/07/31 17:43:36;;;;;;;;;;;;;;;;;;6216230;28;19909;-75
2023/07/31 17:46:36;;;;;;;;;;;;;;;;;;6221680;28;20382;-75
2023/07/31 17:49:36;;;;;;;;;;;;;;;;;;6216587;28;20253;-76
2023/07/31 17:52:37;;;;;;;;;;;;;;;;;;6214411;28;20272;-76
2023/07/31 17:55:37;;;;;;;;;;;;;;;;;;6215160;28;19991;-76
2023/07/31 17:58:37;;;;;;;;;;;;;;;;;;6221883;28;20375;-75
2023/07/31 18:01:37;;;;;;;;;;;;;;;;;;6211028;28;20556;-75
2023/07/31 18:04:37;;;;;;;;;;;;;;;;;;6222990;28;20028;-75
2023/07/31 18:07:37;;;;;;;;;;;;;;;;;;6221211;28;20304;-76
2023/07/31 18:10:39;;;;;;;;;;;;;;;;;;6220827;28;19975;-75
2023/07/31 18:13:39;;;;;;;;;;;;;;;;;;6226639;28;19909;-74
2023/07/31 18:16:39;;;;;;;;;;;;;;;;;;6216445;28;19949;-89
2023/07/31 18:19:39;;;;;;;;;;;;;;;;;;6211369;28;19928;-89
2023/07/31 18:22:40;;;;;;;;;;;;;;;;;;6216357;28;19921;-90
2023/07/31 18:25:40;;;;;;;;;;;;;;;;;;6220392;28;19912;-85
2023/07/31 18:28:40;;;;;;;;;;;;;;;;;;6227348;28;20395;-84
2023/07/31 18:31:40;;;;;;;;;;;;;;;;;;6223131;28;20466;-88
2023/07/31 18:34:40;;;;;;;;;;;;;;;;;;6216927;28;19977;-89
2023/07/31 18:37:41;;;;;;;;;;;;;;;;;;6216955;28;19938;-89
2023/07/31 18:40:41;;;;;;;;;;;;;;;;;;6207841;28;20364;-89
2023/07/31 18:43:42;;;;;;;;;;;;;;;;;;6220338;28;19920;-86
2023/07/31 18:46:42;;;;;;;;;;;;;;;;;;6218581;28;19912;-90
2023/07/31 18:49:42;;;;;;;;;;;;;;;;;;6218638;28;19908;-89
2023/07/31 18:52:42;;;;;;;;;;;;;;;;;;6217825;28;19909;-90
2023/07/31 18:55:43;;;;;;;;;;;;;;;;;;6218121;28;19906;-90
2023/07/31 18:58:43;;;;;;;;;;;;;;;;;;6227032;28;19973;-87
2023/07/31 19:01:45;;;;;;;;;;;;;;;;;;6221987;28;20024;-90
2023/07/31 19:04:45;;;;;;;;;;;;;;;;;;6230040;28;19921;-89
2023/07/31 19:07:45;;;;;;;;;;;;;;;;;;6213422;28;19971;-87
2023/07/31 19:10:45;;;;;;;;;;;;;;;;;;6219885;28;19909;-89
2023/07/31 19:13:46;;;;;;;;;;;;;;;;;;6225384;28;19917;-90
2023/07/31 19:16:46;;;;;;;;;;;;;;;;;;6214626;28;20279;-90
2023/07/31 19:19:46;;;;;;;;;;;;;;;;;;6217768;28;20004;-90
2023/07/31 19:22:47;;;;;;;;;;;;;;;;;;6220691;28;19909;-90
2023/07/31 19:25:47;;;;;;;;;;;;;;;;;;6220490;28;20368;-90
2023/07/31 19:28:48;;;;;;;;;;;;;;;;;;6223088;28;19955;-91
2023/07/31 19:31:48;;;;;;;;;;;;;;;;;;6217885;28;20360;-90
2023/07/31 19:34:48;;;;;;;;;;;;;;;;;;6218363;28;20391;-90
2023/07/31 19:37:48;;;;;;;;;;;;;;;;;;6218966;28;19909;-91
2023/07/31 19:40:49;;;;;;;;;;;;;;;;;;6216619;28;19909;-90
2023/07/31 19:43:49;;;;;;;;;;;;;;;;;;6233984;28;19921;-89
2023/07/31 19:46:49;;;;;;;;;;;;;;;;;;6229651;28;19906;-89
2023/07/31 19:49:49;;;;;;;;;;;;;;;;;;6218219;28;19968;-86
2023/07/31 19:52:49;;;;;;;;;;;;;;;;;;6225599;28;20411;-85
2023/07/31 19:55:50;;;;;;;;;;;;;;;;;;6230475;28;20000;-86
2023/07/31 19:58:50;;;;;;;;;;;;;;;;;;6222114;28;19994;-90
2023/07/31 20:01:50;;;;;;;;;;;;;;;;;;6216466;28;19913;-89
2023/07/31 20:04:50;;;;;;;;;;;;;;;;;;6225689;28;19927;-89
2023/07/31 20:07:52;;;;;;;;;;;;;;;;;;6239579;28;19956;-90
2023/07/31 20:10:52;;;;;;;;;;;;;;;;;;6244138;28;19992;-86
2023/07/31 20:13:52;;;;;;;;;;;;;;;;;;6249041;28;20389;-84
2023/07/31 20:16:52;;;;;;;;;;;;;;;;;;6250022;28;20007;-85
2023/07/31 20:19:52;;;;;;;;;;;;;;;;;;6246070;28;19917;-88
2023/07/31 20:22:53;;;;;;;;;;;;;;;;;;6245700;28;19909;-88
2023/07/31 20:25:53;;;;;;;;;;;;;;;;;;6244922;28;19951;-90
2023/07/31 20:28:53;;;;;;;;;;;;;;;;;;6251979;28;19905;-91
2023/07/31 20:31:53;;;;;;;;;;;;;;;;;;6241431;28;19920;-87